sensor_id;sensor_type;location;lat;lon;timestamp;P1;durP1;ratioP1;P2;durP2;ratioP2
6693;SDS011;3384;42.628;23.380;2023-10-31T00:01:15;10.67;;;9.77;;
6693;SDS011;3384;42.628;23.380;2023-10-31T00:03:42;10.60;;;10.00;;
6693;SDS011;3384;42.628;23.380;2023-10-31T00:06:09;8.90;;;8.63;;
6693;SDS011;3384;42.628;23.380;2023-10-31T00:08:36;9.90;;;9.20;;
6693;SDS011;3384;42.628;23.380;2023-10-31T00:11:05;8.50;;;8.20;;
6693;SDS011;3384;42.628;23.380;2023-10-31T00:13:32;10.07;;;9.20;;
6693;SDS011;3384;42.628;23.380;2023-10-31T00:15:59;9.27;;;8.50;;
6693;SDS011;3384;42.628;23.380;2023-10-31T00:18:26;8.83;;;8.07;;
6693;SDS011;3384;42.628;23.380;2023-10-31T00:20:53;9.10;;;8.70;;
6693;SDS011;3384;42.628;23.380;2023-10-31T00:23:22;8.80;;;8.40;;
6693;SDS011;3384;42.628;23.380;2023-10-31T00:25:49;8.80;;;8.50;;
6693;SDS011;3384;42.628;23.380;2023-10-31T00:28:17;8.57;;;8.20;;
6693;SDS011;3384;42.628;23.380;2023-10-31T00:30:44;10.50;;;9.63;;
6693;SDS011;3384;42.628;23.380;2023-10-31T00:33:11;9.33;;;8.80;;
6693;SDS011;3384;42.628;23.380;2023-10-31T00:35:38;9.63;;;9.27;;
6693;SDS011;3384;42.628;23.380;2023-10-31T00:38:05;9.60;;;9.17;;
6693;SDS011;3384;42.628;23.380;2023-10-31T00:40:32;9.03;;;8.50;;
6693;SDS011;3384;42.628;23.380;2023-10-31T00:42:58;10.93;;;10.10;;
6693;SDS011;3384;42.628;23.380;2023-10-31T00:45:27;9.67;;;8.90;;
6693;SDS011;3384;42.628;23.380;2023-10-31T00:47:54;8.93;;;8.43;;
6693;SDS011;3384;42.628;23.380;2023-10-31T00:50:21;8.77;;;8.37;;
6693;SDS011;3384;42.628;23.380;2023-10-31T00:52:48;10.50;;;9.50;;
6693;SDS011;3384;42.628;23.380;2023-10-31T00:55:16;8.63;;;8.23;;
6693;SDS011;3384;42.628;23.380;2023-10-31T00:57:43;9.37;;;8.67;;
6693;SDS011;3384;42.628;23.380;2023-10-31T01:00:10;9.67;;;8.93;;
6693;SDS011;3384;42.628;23.380;2023-10-31T01:02:40;10.33;;;9.30;;
6693;SDS011;3384;42.628;23.380;2023-10-31T01:05:07;11.17;;;10.53;;
6693;SDS011;3384;42.628;23.380;2023-10-31T01:07:34;10.40;;;9.47;;
6693;SDS011;3384;42.628;23.380;2023-10-31T01:10:01;8.73;;;8.33;;
6693;SDS011;3384;42.628;23.380;2023-10-31T01:12:28;8.90;;;8.60;;
6693;SDS011;3384;42.628;23.380;2023-10-31T01:14:56;12.77;;;9.57;;
6693;SDS011;3384;42.628;23.380;2023-10-31T01:17:23;9.50;;;8.77;;
6693;SDS011;3384;42.628;23.380;2023-10-31T01:19:51;8.73;;;8.40;;
6693;SDS011;3384;42.628;23.380;2023-10-31T01:22:18;10.60;;;9.80;;
6693;SDS011;3384;42.628;23.380;2023-10-31T01:24:45;8.73;;;8.23;;
6693;SDS011;3384;42.628;23.380;2023-10-31T01:27:12;9.00;;;8.27;;
6693;SDS011;3384;42.628;23.380;2023-10-31T01:29:39;8.43;;;7.80;;
6693;SDS011;3384;42.628;23.380;2023-10-31T01:32:06;7.60;;;7.30;;
6693;SDS011;3384;42.628;23.380;2023-10-31T01:34:33;8.47;;;7.87;;
6693;SDS011;3384;42.628;23.380;2023-10-31T01:37:01;12.00;;;8.30;;
6693;SDS011;3384;42.628;23.380;2023-10-31T01:39:28;7.73;;;7.10;;
6693;SDS011;3384;42.628;23.380;2023-10-31T01:41:55;8.03;;;7.50;;
6693;SDS011;3384;42.628;23.380;2023-10-31T01:44:22;9.13;;;8.63;;
6693;SDS011;3384;42.628;23.380;2023-10-31T01:46:50;7.90;;;7.63;;
6693;SDS011;3384;42.628;23.380;2023-10-31T01:49:17;7.27;;;7.07;;
6693;SDS011;3384;42.628;23.380;2023-10-31T01:51:44;8.30;;;7.63;;
6693;SDS011;3384;42.628;23.380;2023-10-31T01:54:14;6.67;;;6.37;;
6693;SDS011;3384;42.628;23.380;2023-10-31T01:56:41;7.57;;;7.00;;
6693;SDS011;3384;42.628;23.380;2023-10-31T01:59:09;7.13;;;6.53;;
6693;SDS011;3384;42.628;23.380;2023-10-31T02:01:37;7.27;;;6.87;;
6693;SDS011;3384;42.628;23.380;2023-10-31T02:04:05;7.63;;;7.07;;
6693;SDS011;3384;42.628;23.380;2023-10-31T02:06:32;8.70;;;8.23;;
6693;SDS011;3384;42.628;23.380;2023-10-31T02:08:59;8.07;;;7.57;;
6693;SDS011;3384;42.628;23.380;2023-10-31T02:11:28;7.57;;;7.00;;
6693;SDS011;3384;42.628;23.380;2023-10-31T02:13:57;8.20;;;7.80;;
6693;SDS011;3384;42.628;23.380;2023-10-31T02:16:24;8.93;;;8.07;;
6693;SDS011;3384;42.628;23.380;2023-10-31T02:18:51;7.67;;;7.30;;
6693;SDS011;3384;42.628;23.380;2023-10-31T02:21:19;6.40;;;6.00;;
6693;SDS011;3384;42.628;23.380;2023-10-31T02:23:56;6.67;;;6.30;;
6693;SDS011;3384;42.628;23.380;2023-10-31T02:26:24;6.50;;;6.10;;
6693;SDS011;3384;42.628;23.380;2023-10-31T02:28:55;5.60;;;5.40;;
6693;SDS011;3384;42.628;23.380;2023-10-31T02:31:22;6.50;;;6.10;;
6693;SDS011;3384;42.628;23.380;2023-10-31T02:33:49;11.77;;;5.77;;
6693;SDS011;3384;42.628;23.380;2023-10-31T02:36:16;6.10;;;5.50;;
6693;SDS011;3384;42.628;23.380;2023-10-31T02:38:43;7.37;;;6.77;;
6693;SDS011;3384;42.628;23.380;2023-10-31T02:41:11;6.20;;;5.80;;
6693;SDS011;3384;42.628;23.380;2023-10-31T02:43:38;6.33;;;6.03;;
6693;SDS011;3384;42.628;23.380;2023-10-31T02:46:07;13.03;;;6.00;;
6693;SDS011;3384;42.628;23.380;2023-10-31T02:48:37;6.10;;;5.80;;
6693;SDS011;3384;42.628;23.380;2023-10-31T02:51:05;7.67;;;7.30;;
6693;SDS011;3384;42.628;23.380;2023-10-31T02:53:46;6.60;;;6.20;;
6693;SDS011;3384;42.628;23.380;2023-10-31T02:56:14;7.00;;;6.70;;
6693;SDS011;3384;42.628;23.380;2023-10-31T02:58:42;13.93;;;6.80;;
6693;SDS011;3384;42.628;23.380;2023-10-31T03:01:09;10.03;;;6.13;;
6693;SDS011;3384;42.628;23.380;2023-10-31T03:03:36;6.57;;;5.97;;
6693;SDS011;3384;42.628;23.380;2023-10-31T03:06:04;5.37;;;5.27;;
6693;SDS011;3384;42.628;23.380;2023-10-31T03:08:31;6.13;;;5.93;;
6693;SDS011;3384;42.628;23.380;2023-10-31T03:10:58;6.40;;;5.90;;
6693;SDS011;3384;42.628;23.380;2023-10-31T03:13:27;6.83;;;6.30;;
6693;SDS011;3384;42.628;23.380;2023-10-31T03:15:54;6.17;;;5.67;;
6693;SDS011;3384;42.628;23.380;2023-10-31T03:18:21;6.57;;;5.70;;
6693;SDS011;3384;42.628;23.380;2023-10-31T03:20:48;5.00;;;4.80;;
6693;SDS011;3384;42.628;23.380;2023-10-31T03:23:15;7.13;;;4.70;;
6693;SDS011;3384;42.628;23.380;2023-10-31T03:25:42;7.47;;;4.60;;
6693;SDS011;3384;42.628;23.380;2023-10-31T03:28:17;7.63;;;5.53;;
6693;SDS011;3384;42.628;23.380;2023-10-31T03:30:50;5.10;;;4.80;;
6693;SDS011;3384;42.628;23.380;2023-10-31T03:33:17;5.40;;;5.10;;
6693;SDS011;3384;42.628;23.380;2023-10-31T03:35:44;6.03;;;5.53;;
6693;SDS011;3384;42.628;23.380;2023-10-31T03:38:11;5.13;;;4.90;;
6693;SDS011;3384;42.628;23.380;2023-10-31T03:40:39;5.70;;;5.07;;
6693;SDS011;3384;42.628;23.380;2023-10-31T03:43:06;6.27;;;5.77;;
6693;SDS011;3384;42.628;23.380;2023-10-31T03:45:33;5.00;;;4.80;;
6693;SDS011;3384;42.628;23.380;2023-10-31T03:48:01;4.80;;;4.50;;
6693;SDS011;3384;42.628;23.380;2023-10-31T03:50:28;5.30;;;5.10;;
6693;SDS011;3384;42.628;23.380;2023-10-31T03:52:55;7.07;;;6.53;;
6693;SDS011;3384;42.628;23.380;2023-10-31T03:55:23;10.90;;;5.60;;
6693;SDS011;3384;42.628;23.380;2023-10-31T03:57:50;5.07;;;4.70;;
6693;SDS011;3384;42.628;23.380;2023-10-31T04:00:17;5.40;;;5.00;;
6693;SDS011;3384;42.628;23.380;2023-10-31T04:02:44;5.23;;;4.93;;
6693;SDS011;3384;42.628;23.380;2023-10-31T04:05:12;4.90;;;4.50;;
6693;SDS011;3384;42.628;23.380;2023-10-31T04:07:39;4.63;;;4.30;;
6693;SDS011;3384;42.628;23.380;2023-10-31T04:10:07;6.07;;;5.37;;
6693;SDS011;3384;42.628;23.380;2023-10-31T04:12:34;5.47;;;5.17;;
6693;SDS011;3384;42.628;23.380;2023-10-31T04:15:01;6.10;;;5.13;;
6693;SDS011;3384;42.628;23.380;2023-10-31T04:17:29;5.50;;;4.97;;
6693;SDS011;3384;42.628;23.380;2023-10-31T04:19:56;5.47;;;5.07;;
6693;SDS011;3384;42.628;23.380;2023-10-31T04:22:24;5.03;;;4.83;;
6693;SDS011;3384;42.628;23.380;2023-10-31T04:24:51;7.10;;;5.30;;
6693;SDS011;3384;42.628;23.380;2023-10-31T04:27:18;5.40;;;5.10;;
6693;SDS011;3384;42.628;23.380;2023-10-31T04:29:45;6.43;;;6.10;;
6693;SDS011;3384;42.628;23.380;2023-10-31T04:32:12;6.27;;;5.90;;
6693;SDS011;3384;42.628;23.380;2023-10-31T04:34:39;5.70;;;5.33;;
6693;SDS011;3384;42.628;23.380;2023-10-31T04:37:06;5.97;;;5.00;;
6693;SDS011;3384;42.628;23.380;2023-10-31T04:39:34;6.80;;;4.80;;
6693;SDS011;3384;42.628;23.380;2023-10-31T04:42:02;6.13;;;5.37;;
6693;SDS011;3384;42.628;23.380;2023-10-31T04:44:29;7.43;;;4.97;;
6693;SDS011;3384;42.628;23.380;2023-10-31T04:46:56;5.07;;;4.70;;
6693;SDS011;3384;42.628;23.380;2023-10-31T04:49:23;4.57;;;4.10;;
6693;SDS011;3384;42.628;23.380;2023-10-31T04:51:50;5.17;;;4.80;;
6693;SDS011;3384;42.628;23.380;2023-10-31T04:54:17;4.30;;;4.10;;
6693;SDS011;3384;42.628;23.380;2023-10-31T04:56:45;4.40;;;4.20;;
6693;SDS011;3384;42.628;23.380;2023-10-31T04:59:13;9.13;;;4.93;;
6693;SDS011;3384;42.628;23.380;2023-10-31T05:01:40;4.53;;;4.23;;
6693;SDS011;3384;42.628;23.380;2023-10-31T05:04:07;5.23;;;4.70;;
6693;SDS011;3384;42.628;23.380;2023-10-31T05:06:34;4.30;;;4.10;;
6693;SDS011;3384;42.628;23.380;2023-10-31T05:09:01;6.00;;;5.60;;
6693;SDS011;3384;42.628;23.380;2023-10-31T05:11:28;5.20;;;5.00;;
6693;SDS011;3384;42.628;23.380;2023-10-31T05:16:27;6.23;;;4.90;;
6693;SDS011;3384;42.628;23.380;2023-10-31T05:18:57;8.30;;;4.10;;
6693;SDS011;3384;42.628;23.380;2023-10-31T05:21:29;5.03;;;4.50;;
6693;SDS011;3384;42.628;23.380;2023-10-31T05:26:52;10.63;;;5.70;;
6693;SDS011;3384;42.628;23.380;2023-10-31T05:29:19;6.63;;;5.40;;
6693;SDS011;3384;42.628;23.380;2023-10-31T05:37:45;13.27;;;5.60;;
6693;SDS011;3384;42.628;23.380;2023-10-31T05:40:12;19.87;;;5.20;;
6693;SDS011;3384;42.628;23.380;2023-10-31T05:42:39;9.50;;;5.43;;
6693;SDS011;3384;42.628;23.380;2023-10-31T05:45:06;12.23;;;5.30;;
6693;SDS011;3384;42.628;23.380;2023-10-31T05:47:35;9.37;;;4.90;;
6693;SDS011;3384;42.628;23.380;2023-10-31T05:50:02;6.03;;;5.60;;
6693;SDS011;3384;42.628;23.380;2023-10-31T05:52:30;5.20;;;5.00;;
6693;SDS011;3384;42.628;23.380;2023-10-31T05:54:58;9.17;;;8.27;;
6693;SDS011;3384;42.628;23.380;2023-10-31T05:57:25;6.00;;;5.57;;
6693;SDS011;3384;42.628;23.380;2023-10-31T05:59:52;7.67;;;5.30;;
6693;SDS011;3384;42.628;23.380;2023-10-31T06:05:08;5.90;;;5.50;;
6693;SDS011;3384;42.628;23.380;2023-10-31T06:07:40;5.80;;;5.53;;
6693;SDS011;3384;42.628;23.380;2023-10-31T06:10:08;6.40;;;6.00;;
6693;SDS011;3384;42.628;23.380;2023-10-31T06:12:35;6.93;;;5.87;;
6693;SDS011;3384;42.628;23.380;2023-10-31T06:15:02;6.10;;;5.90;;
6693;SDS011;3384;42.628;23.380;2023-10-31T06:17:30;6.50;;;6.13;;
6693;SDS011;3384;42.628;23.380;2023-10-31T06:19:58;7.13;;;6.47;;
6693;SDS011;3384;42.628;23.380;2023-10-31T06:22:25;7.87;;;7.67;;
6693;SDS011;3384;42.628;23.380;2023-10-31T06:24:53;8.43;;;7.93;;
6693;SDS011;3384;42.628;23.380;2023-10-31T06:27:21;16.63;;;7.20;;
6693;SDS011;3384;42.628;23.380;2023-10-31T06:29:49;9.87;;;8.60;;
6693;SDS011;3384;42.628;23.380;2023-10-31T06:32:16;17.47;;;8.70;;
6693;SDS011;3384;42.628;23.380;2023-10-31T06:34:42;19.47;;;9.60;;
6693;SDS011;3384;42.628;23.380;2023-10-31T06:37:09;10.57;;;9.50;;
6693;SDS011;3384;42.628;23.380;2023-10-31T06:39:36;10.60;;;9.73;;
6693;SDS011;3384;42.628;23.380;2023-10-31T06:42:05;10.97;;;9.90;;
6693;SDS011;3384;42.628;23.380;2023-10-31T06:44:32;30.37;;;11.17;;
6693;SDS011;3384;42.628;23.380;2023-10-31T06:46:58;11.13;;;10.00;;
6693;SDS011;3384;42.628;23.380;2023-10-31T06:49:25;16.70;;;11.20;;
6693;SDS011;3384;42.628;23.380;2023-10-31T06:51:52;12.83;;;10.50;;
6693;SDS011;3384;42.628;23.380;2023-10-31T06:54:19;14.50;;;10.90;;
6693;SDS011;3384;42.628;23.380;2023-10-31T06:56:47;15.83;;;11.23;;
6693;SDS011;3384;42.628;23.380;2023-10-31T06:59:15;18.13;;;11.83;;
6693;SDS011;3384;42.628;23.380;2023-10-31T07:01:42;16.97;;;11.17;;
6693;SDS011;3384;42.628;23.380;2023-10-31T07:04:10;19.77;;;11.97;;
6693;SDS011;3384;42.628;23.380;2023-10-31T07:06:37;25.87;;;14.60;;
6693;SDS011;3384;42.628;23.380;2023-10-31T07:09:04;26.47;;;12.80;;
6693;SDS011;3384;42.628;23.380;2023-10-31T07:11:31;13.83;;;11.53;;
6693;SDS011;3384;42.628;23.380;2023-10-31T07:13:59;14.13;;;11.73;;
6693;SDS011;3384;42.628;23.380;2023-10-31T07:16:28;16.47;;;11.77;;
6693;SDS011;3384;42.628;23.380;2023-10-31T07:18:55;12.73;;;11.27;;
6693;SDS011;3384;42.628;23.380;2023-10-31T07:21:23;11.60;;;10.60;;
6693;SDS011;3384;42.628;23.380;2023-10-31T07:23:51;11.50;;;10.43;;
6693;SDS011;3384;42.628;23.380;2023-10-31T07:26:18;10.50;;;10.03;;
6693;SDS011;3384;42.628;23.380;2023-10-31T07:28:45;9.00;;;8.50;;
6693;SDS011;3384;42.628;23.380;2023-10-31T07:31:11;9.40;;;9.00;;
6693;SDS011;3384;42.628;23.380;2023-10-31T07:33:40;10.20;;;9.53;;
6693;SDS011;3384;42.628;23.380;2023-10-31T07:36:07;17.50;;;9.47;;
6693;SDS011;3384;42.628;23.380;2023-10-31T07:38:34;11.03;;;10.30;;
6693;SDS011;3384;42.628;23.380;2023-10-31T07:41:01;10.83;;;10.00;;
6693;SDS011;3384;42.628;23.380;2023-10-31T07:43:28;11.10;;;10.40;;
6693;SDS011;3384;42.628;23.380;2023-10-31T07:45:55;21.80;;;10.47;;
6693;SDS011;3384;42.628;23.380;2023-10-31T07:48:22;14.73;;;10.40;;
6693;SDS011;3384;42.628;23.380;2023-10-31T07:50:50;11.13;;;10.20;;
6693;SDS011;3384;42.628;23.380;2023-10-31T07:53:17;10.30;;;9.90;;
6693;SDS011;3384;42.628;23.380;2023-10-31T07:55:44;16.53;;;11.07;;
6693;SDS011;3384;42.628;23.380;2023-10-31T07:58:11;10.67;;;10.20;;
6693;SDS011;3384;42.628;23.380;2023-10-31T08:00:38;11.10;;;10.57;;
6693;SDS011;3384;42.628;23.380;2023-10-31T08:03:05;11.13;;;10.30;;
6693;SDS011;3384;42.628;23.380;2023-10-31T08:05:32;12.50;;;11.20;;
6693;SDS011;3384;42.628;23.380;2023-10-31T08:08:00;13.30;;;12.20;;
6693;SDS011;3384;42.628;23.380;2023-10-31T08:10:28;13.10;;;11.90;;
6693;SDS011;3384;42.628;23.380;2023-10-31T08:12:55;11.47;;;10.87;;
6693;SDS011;3384;42.628;23.380;2023-10-31T08:15:22;40.37;;;23.73;;
6693;SDS011;3384;42.628;23.380;2023-10-31T08:17:49;23.37;;;14.63;;
6693;SDS011;3384;42.628;23.380;2023-10-31T08:20:16;13.40;;;12.27;;
6693;SDS011;3384;42.628;23.380;2023-10-31T08:22:43;15.50;;;13.90;;
6693;SDS011;3384;42.628;23.380;2023-10-31T08:25:12;13.17;;;12.20;;
6693;SDS011;3384;42.628;23.380;2023-10-31T08:27:39;20.03;;;14.10;;
6693;SDS011;3384;42.628;23.380;2023-10-31T08:30:07;13.00;;;12.17;;
6693;SDS011;3384;42.628;23.380;2023-10-31T08:32:34;13.57;;;12.33;;
6693;SDS011;3384;42.628;23.380;2023-10-31T08:35:01;13.90;;;12.77;;
6693;SDS011;3384;42.628;23.380;2023-10-31T08:37:28;13.60;;;12.67;;
6693;SDS011;3384;42.628;23.380;2023-10-31T08:39:55;14.50;;;13.70;;
6693;SDS011;3384;42.628;23.380;2023-10-31T08:42:23;13.40;;;12.73;;
6693;SDS011;3384;42.628;23.380;2023-10-31T08:44:50;14.57;;;13.40;;
6693;SDS011;3384;42.628;23.380;2023-10-31T08:47:17;15.20;;;13.80;;
6693;SDS011;3384;42.628;23.380;2023-10-31T08:49:44;14.60;;;13.53;;
6693;SDS011;3384;42.628;23.380;2023-10-31T08:52:11;14.30;;;13.30;;
6693;SDS011;3384;42.628;23.380;2023-10-31T08:54:38;16.57;;;15.37;;
6693;SDS011;3384;42.628;23.380;2023-10-31T08:57:05;16.30;;;13.97;;
6693;SDS011;3384;42.628;23.380;2023-10-31T08:59:34;17.33;;;15.73;;
6693;SDS011;3384;42.628;23.380;2023-10-31T09:02:01;15.87;;;14.60;;
6693;SDS011;3384;42.628;23.380;2023-10-31T09:04:28;14.40;;;13.37;;
6693;SDS011;3384;42.628;23.380;2023-10-31T09:06:55;16.30;;;14.30;;
6693;SDS011;3384;42.628;23.380;2023-10-31T09:09:22;15.20;;;14.10;;
6693;SDS011;3384;42.628;23.380;2023-10-31T09:11:49;15.40;;;13.97;;
6693;SDS011;3384;42.628;23.380;2023-10-31T09:14:16;14.83;;;14.00;;
6693;SDS011;3384;42.628;23.380;2023-10-31T09:16:44;15.60;;;14.10;;
6693;SDS011;3384;42.628;23.380;2023-10-31T09:19:11;15.60;;;14.57;;
6693;SDS011;3384;42.628;23.380;2023-10-31T09:21:38;15.23;;;13.63;;
6693;SDS011;3384;42.628;23.380;2023-10-31T09:24:05;15.43;;;14.07;;
6693;SDS011;3384;42.628;23.380;2023-10-31T09:26:33;15.57;;;13.57;;
6693;SDS011;3384;42.628;23.380;2023-10-31T09:29:00;14.83;;;14.03;;
6693;SDS011;3384;42.628;23.380;2023-10-31T09:31:28;15.50;;;14.37;;
6693;SDS011;3384;42.628;23.380;2023-10-31T09:33:56;14.90;;;14.00;;
6693;SDS011;3384;42.628;23.380;2023-10-31T09:36:23;14.90;;;14.20;;
6693;SDS011;3384;42.628;23.380;2023-10-31T09:38:50;15.97;;;15.17;;
6693;SDS011;3384;42.628;23.380;2023-10-31T09:41:16;15.60;;;14.67;;
6693;SDS011;3384;42.628;23.380;2023-10-31T09:43:44;15.90;;;14.67;;
6693;SDS011;3384;42.628;23.380;2023-10-31T09:46:11;17.07;;;14.40;;
6693;SDS011;3384;42.628;23.380;2023-10-31T09:48:38;16.33;;;15.20;;
6693;SDS011;3384;42.628;23.380;2023-10-31T09:51:08;15.70;;;14.77;;
6693;SDS011;3384;42.628;23.380;2023-10-31T09:53:36;15.67;;;14.87;;
6693;SDS011;3384;42.628;23.380;2023-10-31T09:56:05;15.77;;;14.70;;
6693;SDS011;3384;42.628;23.380;2023-10-31T09:58:33;16.00;;;14.87;;
6693;SDS011;3384;42.628;23.380;2023-10-31T10:01:00;18.43;;;16.73;;
6693;SDS011;3384;42.628;23.380;2023-10-31T10:03:27;15.97;;;14.93;;
6693;SDS011;3384;42.628;23.380;2023-10-31T10:05:55;15.40;;;14.70;;
6693;SDS011;3384;42.628;23.380;2023-10-31T10:08:24;17.33;;;16.20;;
6693;SDS011;3384;42.628;23.380;2023-10-31T10:10:51;16.97;;;15.10;;
6693;SDS011;3384;42.628;23.380;2023-10-31T10:13:18;17.00;;;15.63;;
6693;SDS011;3384;42.628;23.380;2023-10-31T10:15:46;17.30;;;15.90;;
6693;SDS011;3384;42.628;23.380;2023-10-31T10:18:26;15.93;;;15.20;;
6693;SDS011;3384;42.628;23.380;2023-10-31T10:20:54;16.40;;;15.30;;
6693;SDS011;3384;42.628;23.380;2023-10-31T10:23:24;16.53;;;15.33;;
6693;SDS011;3384;42.628;23.380;2023-10-31T10:25:51;16.53;;;15.37;;
6693;SDS011;3384;42.628;23.380;2023-10-31T10:28:19;15.63;;;14.80;;
6693;SDS011;3384;42.628;23.380;2023-10-31T10:30:46;18.30;;;16.80;;
6693;SDS011;3384;42.628;23.380;2023-10-31T10:33:13;16.20;;;14.70;;
6693;SDS011;3384;42.628;23.380;2023-10-31T10:35:41;16.57;;;15.23;;
6693;SDS011;3384;42.628;23.380;2023-10-31T10:38:10;17.80;;;15.87;;
6693;SDS011;3384;42.628;23.380;2023-10-31T10:40:40;15.40;;;14.50;;
6693;SDS011;3384;42.628;23.380;2023-10-31T10:43:09;18.90;;;16.43;;
6693;SDS011;3384;42.628;23.380;2023-10-31T10:45:42;16.60;;;15.50;;
6693;SDS011;3384;42.628;23.380;2023-10-31T10:48:11;15.70;;;15.10;;
6693;SDS011;3384;42.628;23.380;2023-10-31T10:50:42;17.13;;;15.80;;
6693;SDS011;3384;42.628;23.380;2023-10-31T10:53:13;15.57;;;14.77;;
6693;SDS011;3384;42.628;23.380;2023-10-31T10:55:50;15.23;;;14.40;;
6693;SDS011;3384;42.628;23.380;2023-10-31T10:58:20;15.97;;;14.97;;
6693;SDS011;3384;42.628;23.380;2023-10-31T11:00:55;15.30;;;14.50;;
6693;SDS011;3384;42.628;23.380;2023-10-31T11:03:24;16.10;;;15.30;;
6693;SDS011;3384;42.628;23.380;2023-10-31T11:05:54;16.27;;;14.67;;
6693;SDS011;3384;42.628;23.380;2023-10-31T11:08:23;15.77;;;15.03;;
6693;SDS011;3384;42.628;23.380;2023-10-31T11:10:53;18.53;;;16.90;;
6693;SDS011;3384;42.628;23.380;2023-10-31T11:13:22;18.10;;;16.70;;
6693;SDS011;3384;42.628;23.380;2023-10-31T11:15:51;16.50;;;15.80;;
6693;SDS011;3384;42.628;23.380;2023-10-31T11:18:21;18.20;;;16.60;;
6693;SDS011;3384;42.628;23.380;2023-10-31T11:20:49;20.53;;;18.00;;
6693;SDS011;3384;42.628;23.380;2023-10-31T11:23:16;19.50;;;17.43;;
6693;SDS011;3384;42.628;23.380;2023-10-31T11:25:43;18.83;;;17.00;;
6693;SDS011;3384;42.628;23.380;2023-10-31T11:28:12;20.70;;;18.60;;
6693;SDS011;3384;42.628;23.380;2023-10-31T11:30:40;20.03;;;17.93;;
6693;SDS011;3384;42.628;23.380;2023-10-31T11:33:11;21.90;;;19.70;;
6693;SDS011;3384;42.628;23.380;2023-10-31T11:35:39;21.03;;;19.10;;
6693;SDS011;3384;42.628;23.380;2023-10-31T11:38:07;18.73;;;17.03;;
6693;SDS011;3384;42.628;23.380;2023-10-31T11:40:36;18.40;;;16.90;;
6693;SDS011;3384;42.628;23.380;2023-10-31T11:43:04;19.53;;;17.80;;
6693;SDS011;3384;42.628;23.380;2023-10-31T11:45:35;18.10;;;16.77;;
6693;SDS011;3384;42.628;23.380;2023-10-31T11:48:07;21.17;;;17.40;;
6693;SDS011;3384;42.628;23.380;2023-10-31T11:50:35;17.33;;;15.70;;
6693;SDS011;3384;42.628;23.380;2023-10-31T11:53:04;19.03;;;16.00;;
6693;SDS011;3384;42.628;23.380;2023-10-31T11:55:36;17.83;;;16.73;;
6693;SDS011;3384;42.628;23.380;2023-10-31T11:58:13;19.37;;;17.60;;
6693;SDS011;3384;42.628;23.380;2023-10-31T12:00:42;17.70;;;16.70;;
6693;SDS011;3384;42.628;23.380;2023-10-31T12:03:10;18.10;;;16.90;;
6693;SDS011;3384;42.628;23.380;2023-10-31T12:05:37;18.17;;;16.87;;
6693;SDS011;3384;42.628;23.380;2023-10-31T12:08:04;17.57;;;15.60;;
6693;SDS011;3384;42.628;23.380;2023-10-31T12:10:32;23.60;;;16.43;;
6693;SDS011;3384;42.628;23.380;2023-10-31T12:12:59;27.50;;;16.50;;
6693;SDS011;3384;42.628;23.380;2023-10-31T12:15:25;18.10;;;16.33;;
6693;SDS011;3384;42.628;23.380;2023-10-31T12:17:58;18.47;;;16.87;;
6693;SDS011;3384;42.628;23.380;2023-10-31T12:20:25;20.07;;;18.30;;
6693;SDS011;3384;42.628;23.380;2023-10-31T12:23:02;19.27;;;17.40;;
6693;SDS011;3384;42.628;23.380;2023-10-31T12:25:30;21.10;;;18.97;;
6693;SDS011;3384;42.628;23.380;2023-10-31T12:28:00;17.40;;;16.10;;
6693;SDS011;3384;42.628;23.380;2023-10-31T12:30:27;17.87;;;16.77;;
6693;SDS011;3384;42.628;23.380;2023-10-31T12:32:54;17.83;;;16.13;;
6693;SDS011;3384;42.628;23.380;2023-10-31T12:35:23;16.87;;;15.70;;
6693;SDS011;3384;42.628;23.380;2023-10-31T12:37:52;17.83;;;16.67;;
6693;SDS011;3384;42.628;23.380;2023-10-31T12:43:27;17.07;;;15.97;;
6693;SDS011;3384;42.628;23.380;2023-10-31T12:45:54;17.70;;;16.00;;
6693;SDS011;3384;42.628;23.380;2023-10-31T12:48:23;17.87;;;16.70;;
6693;SDS011;3384;42.628;23.380;2023-10-31T12:50:55;18.00;;;16.27;;
6693;SDS011;3384;42.628;23.380;2023-10-31T12:53:33;18.80;;;16.37;;
6693;SDS011;3384;42.628;23.380;2023-10-31T12:56:00;19.03;;;17.07;;
6693;SDS011;3384;42.628;23.380;2023-10-31T12:58:27;19.43;;;17.93;;
6693;SDS011;3384;42.628;23.380;2023-10-31T13:00:55;17.00;;;16.00;;
6693;SDS011;3384;42.628;23.380;2023-10-31T13:03:22;16.73;;;15.77;;
6693;SDS011;3384;42.628;23.380;2023-10-31T13:05:49;17.03;;;16.03;;
6693;SDS011;3384;42.628;23.380;2023-10-31T13:08:20;17.67;;;16.10;;
6693;SDS011;3384;42.628;23.380;2023-10-31T13:10:49;16.67;;;15.90;;
6693;SDS011;3384;42.628;23.380;2023-10-31T13:13:16;16.63;;;15.57;;
6693;SDS011;3384;42.628;23.380;2023-10-31T13:15:43;16.67;;;15.40;;
6693;SDS011;3384;42.628;23.380;2023-10-31T13:18:10;15.43;;;14.43;;
6693;SDS011;3384;42.628;23.380;2023-10-31T13:20:39;16.50;;;15.43;;
6693;SDS011;3384;42.628;23.380;2023-10-31T13:23:06;32.33;;;16.17;;
6693;SDS011;3384;42.628;23.380;2023-10-31T13:25:34;18.33;;;16.57;;
6693;SDS011;3384;42.628;23.380;2023-10-31T13:28:01;15.77;;;14.63;;
6693;SDS011;3384;42.628;23.380;2023-10-31T13:30:32;18.40;;;16.07;;
6693;SDS011;3384;42.628;23.380;2023-10-31T13:32:58;17.70;;;16.17;;
6693;SDS011;3384;42.628;23.380;2023-10-31T13:35:25;17.47;;;15.80;;
6693;SDS011;3384;42.628;23.380;2023-10-31T13:37:52;17.00;;;15.27;;
6693;SDS011;3384;42.628;23.380;2023-10-31T13:40:19;17.03;;;15.80;;
6693;SDS011;3384;42.628;23.380;2023-10-31T13:42:48;30.83;;;16.20;;
6693;SDS011;3384;42.628;23.380;2023-10-31T13:45:15;16.90;;;15.60;;
6693;SDS011;3384;42.628;23.380;2023-10-31T13:47:42;17.87;;;16.67;;
6693;SDS011;3384;42.628;23.380;2023-10-31T13:50:09;20.13;;;17.00;;
6693;SDS011;3384;42.628;23.380;2023-10-31T13:52:36;17.87;;;16.60;;
6693;SDS011;3384;42.628;23.380;2023-10-31T13:55:04;16.70;;;15.70;;
6693;SDS011;3384;42.628;23.380;2023-10-31T13:57:32;17.63;;;15.80;;
6693;SDS011;3384;42.628;23.380;2023-10-31T14:00:00;22.60;;;16.40;;
6693;SDS011;3384;42.628;23.380;2023-10-31T14:02:27;18.27;;;16.87;;
6693;SDS011;3384;42.628;23.380;2023-10-31T14:04:55;21.30;;;16.30;;
6693;SDS011;3384;42.628;23.380;2023-10-31T14:07:22;17.47;;;15.97;;
6693;SDS011;3384;42.628;23.380;2023-10-31T14:09:55;17.00;;;15.30;;
6693;SDS011;3384;42.628;23.380;2023-10-31T14:12:22;24.43;;;16.03;;
6693;SDS011;3384;42.628;23.380;2023-10-31T14:14:50;18.53;;;15.73;;
6693;SDS011;3384;42.628;23.380;2023-10-31T14:17:19;17.13;;;15.60;;
6693;SDS011;3384;42.628;23.380;2023-10-31T14:19:48;18.00;;;16.30;;
6693;SDS011;3384;42.628;23.380;2023-10-31T14:22:15;18.77;;;16.97;;
6693;SDS011;3384;42.628;23.380;2023-10-31T14:24:41;18.23;;;15.80;;
6693;SDS011;3384;42.628;23.380;2023-10-31T14:27:08;16.57;;;15.23;;
6693;SDS011;3384;42.628;23.380;2023-10-31T14:29:35;17.57;;;15.87;;
6693;SDS011;3384;42.628;23.380;2023-10-31T14:32:06;29.37;;;16.10;;
6693;SDS011;3384;42.628;23.380;2023-10-31T14:34:35;16.83;;;15.43;;
6693;SDS011;3384;42.628;23.380;2023-10-31T14:37:02;18.73;;;16.80;;
6693;SDS011;3384;42.628;23.380;2023-10-31T14:39:31;16.97;;;15.70;;
6693;SDS011;3384;42.628;23.380;2023-10-31T14:41:58;20.50;;;15.93;;
6693;SDS011;3384;42.628;23.380;2023-10-31T14:44:25;17.27;;;16.07;;
6693;SDS011;3384;42.628;23.380;2023-10-31T14:46:52;29.33;;;16.43;;
6693;SDS011;3384;42.628;23.380;2023-10-31T14:49:19;19.30;;;15.93;;
6693;SDS011;3384;42.628;23.380;2023-10-31T14:51:49;37.77;;;16.57;;
6693;SDS011;3384;42.628;23.380;2023-10-31T14:54:18;23.33;;;16.83;;
6693;SDS011;3384;42.628;23.380;2023-10-31T14:56:46;18.50;;;17.00;;
6693;SDS011;3384;42.628;23.380;2023-10-31T14:59:13;19.33;;;17.50;;
6693;SDS011;3384;42.628;23.380;2023-10-31T15:05:02;36.53;;;18.10;;
6693;SDS011;3384;42.628;23.380;2023-10-31T15:07:30;20.17;;;18.13;;
6693;SDS011;3384;42.628;23.380;2023-10-31T15:09:57;27.63;;;18.53;;